aviador You're here:

SARF Decoded Metar

FORMOSA in ARGENTINA
Report Time2017-10-22 06:00:00
UTC Time2017-10-22 06:24:41
Flight Rules mvfr MVFR
Wind230° at 18 kt
W.Decomp.*RWY 22: 16.7 kt HW 6.7 kt RCW
W.Rank230° ranks 6
Current wind is above 230° avg. (6.6)
Visibility9999 m
Phenomena:N/A
Clouds:Overcast 017 Hf
Expected CloudBase > 1,200 ft AGL from Temp-Dew spread
Ceiling1,700 ft
Temp20°C (ISA +5)
Dew Point17°C (83% RH)
AAT15.9°C
QNH1018 hPa
Density Alt915 ft
Elevation197 ft
Report Wrong Elevation
Raw Report
METAR SARF 220600Z 23018KT 9999 OVC017 20/17 Q1018=

Extra information for SARF:More info

Metar Taf Metar & Taf Last 4 Metars F.Rules Stats Wind Profile Meteogram Temp Stats Airport Information Weather charts Add Link Nearby VenuesMetar ALERT Operation Metar Decoded Social comments